South Lake Tahoe, CA

12:54 PM PST on November 26, 2014 (GMT -0800)
Truckee-Tahoe | Change Station
CLOSE
Current Station
Airport
Location: Truckee-Tahoe,
Elevation: 5899 ft
Nearby Weather Stations

Elev 5899 ft 39.32 °N, 120.14 °W | Updated 1 hour ago

Clear
Clear
57 °F
Feels Like 57 °F
N
0
Wind Variable Wind from North

Today
High -- | Low -- °F
--% Chance of Precip.
Yesterday
High -- | Low -- °F
Precip. -- in
6:54 AM 4:39 PM
Waxing Crescent, 22% visible
Pressure 30.44 in
Visibility 10.0 miles
Clouds Clear
Dew Point 34 °F
Humidity 41%
Rainfall 0.00 in
Snow Depth Not available.
UV 3 out of 12
Pollen .20 out of 12
Air Quality Not available.
Flu Activity Not available.
METAR KTRK 261950Z 00000KT 10SM SKC 14/01 A3044 RMK NO SPECI

More Conditions Fewer Conditions

Pressure 30.44 in
Visibility 10.0 miles
Clouds Clear
Dew Point 34 °F
Humidity 41%
Rainfall 0.00 in
Snow Depth Not available.
UV 3 out of 12
Pollen .20 out of 12
Air Quality Not available.
Flu Activity Not available.
METAR KTRK 261950Z 00000KT 10SM SKC 14/01 A3044 RMK NO SPECI

More Conditions Fewer Conditions

10-Day Weather Forecast

Almanac

Astronomy

Nov. 26, 2014 Rise Set
Actual Time
Civil Twilight
Nautical Twilight
Astronomical Twilight
Moon
Length of Visible Light
Length of Day
Tomorrow will be .
, % of the Moon is Illuminated

Today's Extremes

State Highs State Lows

Community

WunderPhotos

Upload Photos

1,773,860 photos uploaded!

WunderBlogs® & News

Nearby

Air Quality

  Air Quality AQ Index Pollutant
Not available.

Snow Depth

Station Depth Elevation

Earthquake Activity

City Distance Mag. Time & Date
Minimum magnitude displayed is 2.5.

Coastal Water Temperatures

Place Temperature

Nearby Weather Stations